Terminal Aerodrome Forecast
Issued by NWS

Home | Current Version | Previous Version | Text Only | Print | Product List | Glossary On
Versions: 1 2 3 4 5 6 7 8 9 10 11 12 13 14 15 16
000
FTUS46 KMTR 032336
TAFMRY
TAF
KMRY 032336Z 0400/0424 27010G21KT P6SM SKC
     FM040200 24007KT P6SM SKC
     FM040700 24005KT P6SM OVC012
     FM041000 VRB03KT P6SM OVC009
     FM041700 27005KT P6SM SCT200
     FM042000 29010KT P6SM SCT200
     FM042200 28009G16KT P6SM SCT200=

USA.gov is the U.S. government's official web portal to all federal, state and local government web resources and services.